createdAt,value
2017-05-21T00:04:21.247Z,1019.61
2017-05-21T00:09:17.147Z,1019.62
2017-05-21T00:14:12.981Z,1019.68
2017-05-21T00:19:08.433Z,1019.70
2017-05-21T00:24:04.488Z,1019.77
2017-05-21T00:29:03.184Z,1019.77
2017-05-21T00:33:58.406Z,1019.78
2017-05-21T00:38:54.553Z,1019.75
2017-05-21T00:43:49.982Z,1019.80
2017-05-21T00:48:46.554Z,1019.81
2017-05-21T00:53:42.308Z,1019.79
2017-05-21T00:58:38.255Z,1019.76
2017-05-21T01:03:33.620Z,1019.82
2017-05-21T01:08:30.058Z,1019.81
2017-05-21T01:13:26.004Z,1019.73
2017-05-21T01:18:21.759Z,1019.90
2017-05-21T01:23:17.850Z,1019.87
2017-05-21T01:28:13.452Z,1019.90
2017-05-21T01:33:09.422Z,1019.84
2017-05-21T01:38:05.046Z,1019.97
2017-05-21T01:43:00.872Z,1019.90
2017-05-21T01:47:56.401Z,1019.93
2017-05-21T01:52:52.376Z,1019.88
2017-05-21T01:57:50.106Z,1019.89
2017-05-21T02:02:45.379Z,1019.88
2017-05-21T02:07:41.359Z,1019.90
2017-05-21T02:12:37.536Z,1019.94
2017-05-21T02:17:33.188Z,1019.86
2017-05-21T02:22:28.830Z,1019.89
2017-05-21T02:27:26.049Z,1019.91
2017-05-21T02:32:21.782Z,1019.97
2017-05-21T02:37:17.733Z,1019.89
2017-05-21T02:42:13.570Z,1019.85
2017-05-21T02:47:09.378Z,1019.92
2017-05-21T02:52:05.261Z,1019.89
2017-05-21T02:57:00.863Z,1019.86
2017-05-21T03:01:56.623Z,1019.76
2017-05-21T03:06:53.734Z,1019.85
2017-05-21T03:11:49.208Z,1019.84
2017-05-21T03:16:44.739Z,1020.00
2017-05-21T03:21:40.836Z,1019.99
2017-05-21T03:26:36.666Z,1019.94
2017-05-21T03:31:33.940Z,1020.06
2017-05-21T03:36:29.281Z,1019.90
2017-05-21T03:41:25.209Z,1020.03
2017-05-21T03:46:21.068Z,1020.02
2017-05-21T03:51:17.307Z,1020.09
2017-05-21T03:56:13.171Z,1020.12
2017-05-21T04:01:08.981Z,1020.09
2017-05-21T04:06:04.963Z,1020.14
2017-05-21T04:11:01.997Z,1020.16
2017-05-21T04:15:57.508Z,1020.24
2017-05-21T04:20:53.423Z,1020.28
2017-05-21T04:25:49.887Z,1020.37
2017-05-21T04:30:46.132Z,1020.32
2017-05-21T04:35:42.299Z,1020.29
2017-05-21T04:40:38.490Z,1020.38
2017-05-21T04:45:35.032Z,1020.42
2017-05-21T04:50:31.192Z,1020.41
2017-05-21T04:55:27.641Z,1020.37
2017-05-21T05:00:23.972Z,1020.42
2017-05-21T05:05:20.233Z,1020.35
2017-05-21T05:10:16.991Z,1020.43
2017-05-21T05:15:12.720Z,1020.46
2017-05-21T05:20:08.842Z,1020.50
2017-05-21T05:25:04.416Z,1020.54
2017-05-21T05:30:01.245Z,1020.61
2017-05-21T05:34:57.280Z,1020.66
2017-05-21T05:39:53.399Z,1020.57
2017-05-21T05:44:49.570Z,1020.62
2017-05-21T05:49:46.128Z,1020.66
2017-05-21T05:54:44.931Z,1020.57
2017-05-21T05:59:39.783Z,1020.71
2017-05-21T06:04:36.540Z,1020.74
2017-05-21T06:09:32.938Z,1020.83
2017-05-21T06:14:28.751Z,1020.88
2017-05-21T06:19:24.238Z,1020.87
2017-05-21T06:24:20.252Z,1020.82
2017-05-21T06:29:16.284Z,1020.91
2017-05-21T06:34:12.731Z,1020.92
2017-05-21T06:39:09.943Z,1020.96
2017-05-21T06:44:05.574Z,1020.98
2017-05-21T06:49:01.120Z,1020.93
2017-05-21T06:53:57.397Z,1021.06
2017-05-21T06:58:53.516Z,1020.98
2017-05-21T07:03:49.351Z,1021.05
2017-05-21T07:08:44.604Z,1021.06
2017-05-21T07:13:40.887Z,1021.08
2017-05-21T07:18:36.695Z,1021.17
2017-05-21T07:23:32.604Z,1021.12
2017-05-21T07:28:29.045Z,1021.11
2017-05-21T07:33:26.539Z,1021.12
2017-05-21T07:38:21.867Z,1021.15
2017-05-21T07:43:18.252Z,1021.19
2017-05-21T07:48:14.553Z,1021.20
2017-05-21T07:53:13.723Z,1021.12
2017-05-21T07:58:12.007Z,1021.15
2017-05-21T08:03:10.149Z,1021.08
2017-05-21T08:08:08.178Z,1021.16
2017-05-21T08:13:05.430Z,1021.08
2017-05-21T08:18:02.810Z,1021.12
2017-05-21T08:22:59.765Z,1021.12
2017-05-21T08:27:57.175Z,1021.18
2017-05-21T08:32:53.920Z,1021.25
2017-05-21T08:37:49.722Z,1021.31
2017-05-21T08:42:46.337Z,1021.25
2017-05-21T08:47:42.744Z,1021.22
2017-05-21T08:52:39.628Z,1021.27
2017-05-21T08:57:36.056Z,1021.35
2017-05-21T09:02:32.574Z,1021.39
2017-05-21T09:07:29.429Z,1021.24
2017-05-21T09:12:26.059Z,1021.31
2017-05-21T09:17:21.799Z,1021.41
2017-05-21T09:22:17.695Z,1021.36
2017-05-21T09:27:13.732Z,1021.33
2017-05-21T09:32:10.410Z,1021.40
2017-05-21T09:37:06.615Z,1021.06
2017-05-21T09:41:59.186Z,1021.03
2017-05-21T09:46:53.217Z,1021.12
2017-05-21T09:51:49.663Z,1021.38
2017-05-21T09:56:45.545Z,1020.99
2017-05-21T10:01:39.627Z,1021.06
2017-05-21T10:06:34.419Z,1021.08
2017-05-21T10:11:30.908Z,1021.41
2017-05-21T10:16:29.242Z,1021.34
2017-05-21T10:21:24.317Z,1021.00
2017-05-21T10:26:18.571Z,1021.00
2017-05-21T10:31:13.646Z,1021.02
2017-05-21T10:36:11.363Z,1021.22
2017-05-21T10:41:09.236Z,1021.05
2017-05-21T10:46:07.941Z,1021.11
2017-05-21T10:51:05.232Z,1021.07
2017-05-21T10:56:02.170Z,1020.92
2017-05-21T11:00:58.586Z,1020.95
2017-05-21T11:05:55.167Z,1020.83
2017-05-21T11:10:50.772Z,1020.78
2017-05-21T11:15:46.803Z,1020.81
2017-05-21T11:20:44.341Z,1020.73
2017-05-21T11:25:39.065Z,1020.68
2017-05-21T11:30:36.535Z,1020.51
2017-05-21T11:35:32.261Z,1020.49
2017-05-21T11:40:27.183Z,1020.53
2017-05-21T11:45:24.632Z,1020.43
2017-05-21T11:50:17.445Z,1020.33
2017-05-21T11:55:09.468Z,1020.28
2017-05-21T12:00:03.976Z,1020.25
2017-05-21T12:04:59.205Z,1020.27
2017-05-21T12:09:54.326Z,1020.12
2017-05-21T12:14:49.503Z,1020.27
2017-05-21T12:19:45.237Z,1020.13
2017-05-21T12:24:42.887Z,1020.24
2017-05-21T12:29:38.869Z,1020.19
2017-05-21T12:34:37.252Z,1020.20
2017-05-21T12:39:34.913Z,1020.09
2017-05-21T12:44:31.264Z,1019.99
2017-05-21T12:49:31.144Z,1019.95
2017-05-21T12:54:24.230Z,1020.02
2017-05-21T12:59:19.332Z,1019.98
2017-05-21T13:04:15.305Z,1019.96
2017-05-21T13:09:12.098Z,1019.94
2017-05-21T13:14:07.207Z,1019.94
2017-05-21T13:19:02.831Z,1019.84
2017-05-21T13:23:58.559Z,1019.89
2017-05-21T13:28:54.535Z,1019.78
2017-05-21T13:33:53.525Z,1019.71
2017-05-21T13:38:48.340Z,1019.78
2017-05-21T13:43:47.741Z,1019.72
2017-05-21T13:48:43.291Z,1019.73
2017-05-21T13:53:40.538Z,1019.66
2017-05-21T13:58:37.090Z,1019.59
2017-05-21T14:03:33.089Z,1019.54
2017-05-21T14:08:29.119Z,1019.51
2017-05-21T14:13:24.793Z,1019.44
2017-05-21T14:18:20.274Z,1019.33
2017-05-21T14:23:19.104Z,1019.23
2017-05-21T14:28:15.471Z,1019.19
2017-05-21T14:33:11.051Z,1019.19
2017-05-21T14:38:09.273Z,1019.20
2017-05-21T14:43:04.862Z,1019.17
2017-05-21T14:48:01.164Z,1019.16
2017-05-21T14:52:58.083Z,1019.13
2017-05-21T14:57:53.567Z,1019.06
2017-05-21T15:02:52.331Z,1018.96
2017-05-21T15:07:48.601Z,1019.00
2017-05-21T15:12:43.939Z,1018.89
2017-05-21T15:17:39.980Z,1018.73
2017-05-21T15:22:38.582Z,1018.75
2017-05-21T15:27:33.442Z,1018.66
2017-05-21T15:32:29.656Z,1018.71
2017-05-21T15:37:25.838Z,1018.62
2017-05-21T15:42:22.479Z,1018.56
2017-05-21T15:52:18.626Z,1018.48
2017-05-21T15:57:15.757Z,1018.52
2017-05-21T16:02:11.364Z,1018.51
2017-05-21T16:07:07.213Z,1018.32
2017-05-21T16:12:03.154Z,1018.39
2017-05-21T16:17:00.275Z,1018.37
2017-05-21T16:21:55.574Z,1018.40
2017-05-21T16:26:51.701Z,1018.28
2017-05-21T16:31:47.689Z,1018.25
2017-05-21T16:36:44.171Z,1018.20
2017-05-21T16:41:39.841Z,1018.13
2017-05-21T16:46:36.206Z,1018.18
2017-05-21T16:51:31.901Z,1018.12
2017-05-21T16:56:27.883Z,1018.00
2017-05-21T17:01:24.042Z,1017.99
2017-05-21T17:06:20.018Z,1017.98
2017-05-21T17:11:16.866Z,1017.93
2017-05-21T17:16:12.251Z,1017.93
2017-05-21T17:21:08.327Z,1017.90
2017-05-21T17:26:04.264Z,1017.87
2017-05-21T17:31:00.738Z,1017.84
2017-05-21T17:35:58.271Z,1017.85
2017-05-21T17:40:56.636Z,1017.86
2017-05-21T17:45:52.501Z,1017.91
2017-05-21T17:50:54.273Z,1017.78
2017-05-21T17:55:54.154Z,1017.80
2017-05-21T18:00:48.675Z,1017.78
2017-05-21T18:05:44.772Z,1017.74
2017-05-21T18:10:41.516Z,1017.79
2017-05-21T18:15:38.376Z,1017.75
2017-05-21T18:20:34.750Z,1017.64
2017-05-21T18:25:35.203Z,1017.64
2017-05-21T18:30:31.962Z,1017.63
2017-05-21T18:35:28.718Z,1017.60
2017-05-21T18:40:24.342Z,1017.50
2017-05-21T18:45:20.983Z,1017.49
2017-05-21T18:50:17.344Z,1017.49
2017-05-21T18:55:14.449Z,1017.49
2017-05-21T19:00:16.845Z,1017.40
2017-05-21T19:15:14.409Z,1017.45
2017-05-21T19:20:12.629Z,1017.41
2017-05-21T19:25:07.873Z,1017.36
2017-05-21T19:30:04.402Z,1017.41
2017-05-21T19:35:00.167Z,1017.45
2017-05-21T19:39:56.742Z,1017.42
2017-05-21T19:44:52.540Z,1017.41
2017-05-21T19:49:48.773Z,1017.35
2017-05-21T19:54:45.206Z,1017.39
2017-05-21T19:59:41.398Z,1017.39
2017-05-21T20:04:37.274Z,1017.42
2017-05-21T20:09:33.537Z,1017.45
2017-05-21T20:14:29.967Z,1017.37
2017-05-21T20:19:30.484Z,1017.39
2017-05-21T20:24:26.345Z,1017.33
2017-05-21T20:29:22.952Z,1017.26
2017-05-21T20:34:19.118Z,1017.20
2017-05-21T20:39:14.921Z,1017.25
2017-05-21T20:44:11.872Z,1017.21
2017-05-21T20:49:08.501Z,1017.13
2017-05-21T20:54:03.916Z,1017.07
2017-05-21T20:59:00.219Z,1017.09
2017-05-21T21:03:56.199Z,1017.15
2017-05-21T21:13:52.083Z,1017.09
2017-05-21T21:18:47.641Z,1017.05
2017-05-21T21:23:44.024Z,1017.02
2017-05-21T21:28:40.157Z,1017.02
2017-05-21T21:33:36.953Z,1017.04
2017-05-21T21:38:32.504Z,1017.04
2017-05-21T21:43:29.648Z,1017.02
2017-05-21T21:48:24.987Z,1016.95
2017-05-21T21:53:21.517Z,1016.95
2017-05-21T21:58:17.972Z,1017.01
2017-05-21T22:03:13.729Z,1017.03
2017-05-21T22:08:09.565Z,1016.96
2017-05-21T22:13:05.694Z,1017.04
2017-05-21T22:18:02.407Z,1016.98
2017-05-21T22:22:59.037Z,1016.87
2017-05-21T22:27:55.881Z,1016.96
2017-05-21T22:32:51.447Z,1016.87
2017-05-21T22:42:52.774Z,1016.89
2017-05-21T22:47:49.110Z,1016.97
2017-05-21T22:52:44.771Z,1016.91
2017-05-21T22:57:44.765Z,1016.94
2017-05-21T23:02:39.349Z,1016.84
2017-05-21T23:07:36.339Z,1016.84
2017-05-21T23:12:31.967Z,1016.76
2017-05-21T23:17:28.309Z,1016.75
2017-05-21T23:22:23.974Z,1016.71
2017-05-21T23:27:20.471Z,1016.65
2017-05-21T23:32:16.335Z,1016.67
2017-05-21T23:37:12.571Z,1016.81
2017-05-21T23:42:09.182Z,1016.78
2017-05-21T23:47:05.436Z,1016.71
2017-05-21T23:52:01.200Z,1016.63
2017-05-21T23:56:57.374Z,1016.63
